Weather at Nairobi Wilson Airport

Public forecast

Using degrees Celsius for public forecast. Weather courtesy of forecast.io.

Current aviation weather report (METAR) for Nairobi Wilson Airport

2023/02/04 07:00 (retrieved 59 minutes ago)

HKNW 040700Z 06010KT 9999 FEW026 24/07 Q1023

Aviation forecast (TAF) for Nairobi Wilson Airport

2023/02/04 06:30 (retrieved 1 hour ago)

TAF TAF HKNW 040500Z 0406/0506 06010KT 9999 SCT026 BECMG 0420/0423 06005KT CAVOK